sensor_id;sensor_type;location;lat;lon;timestamp;P1;durP1;ratioP1;P2;durP2;ratioP2
42030;SDS011;27709;52.036;5.906;2022-10-16T00:01:07;4.38;;;1.95;;
42030;SDS011;27709;52.036;5.906;2022-10-16T00:03:37;5.40;;;1.70;;
42030;SDS011;27709;52.036;5.906;2022-10-16T00:06:04;4.72;;;1.67;;
42030;SDS011;27709;52.036;5.906;2022-10-16T00:08:30;4.35;;;1.58;;
42030;SDS011;27709;52.036;5.906;2022-10-16T00:11:00;4.28;;;2.00;;
42030;SDS011;27709;52.036;5.906;2022-10-16T00:13:29;5.25;;;2.17;;
42030;SDS011;27709;52.036;5.906;2022-10-16T00:15:56;6.07;;;2.10;;
42030;SDS011;27709;52.036;5.906;2022-10-16T00:18:22;5.88;;;1.88;;
42030;SDS011;27709;52.036;5.906;2022-10-16T00:20:48;6.00;;;2.15;;
42030;SDS011;27709;52.036;5.906;2022-10-16T00:23:14;6.25;;;2.53;;
42030;SDS011;27709;52.036;5.906;2022-10-16T00:25:39;3.78;;;2.03;;
42030;SDS011;27709;52.036;5.906;2022-10-16T00:28:05;8.48;;;2.30;;
42030;SDS011;27709;52.036;5.906;2022-10-16T00:30:30;3.22;;;1.70;;
42030;SDS011;27709;52.036;5.906;2022-10-16T00:32:56;5.88;;;2.05;;
42030;SDS011;27709;52.036;5.906;2022-10-16T00:35:21;5.32;;;1.80;;
42030;SDS011;27709;52.036;5.906;2022-10-16T00:37:47;4.40;;;1.67;;
42030;SDS011;27709;52.036;5.906;2022-10-16T00:40:13;5.15;;;2.30;;
42030;SDS011;27709;52.036;5.906;2022-10-16T00:42:38;6.25;;;2.25;;
42030;SDS011;27709;52.036;5.906;2022-10-16T00:45:04;3.63;;;1.75;;
42030;SDS011;27709;52.036;5.906;2022-10-16T00:47:32;3.95;;;1.65;;
42030;SDS011;27709;52.036;5.906;2022-10-16T00:50:07;4.72;;;2.10;;
42030;SDS011;27709;52.036;5.906;2022-10-16T00:52:44;4.07;;;1.70;;
42030;SDS011;27709;52.036;5.906;2022-10-16T00:55:11;4.82;;;1.90;;
42030;SDS011;27709;52.036;5.906;2022-10-16T00:57:38;5.45;;;1.90;;
42030;SDS011;27709;52.036;5.906;2022-10-16T01:00:05;5.22;;;2.10;;
42030;SDS011;27709;52.036;5.906;2022-10-16T01:02:33;3.97;;;1.90;;
42030;SDS011;27709;52.036;5.906;2022-10-16T01:04:58;3.47;;;2.00;;
42030;SDS011;27709;52.036;5.906;2022-10-16T01:10:07;6.40;;;2.38;;
42030;SDS011;27709;52.036;5.906;2022-10-16T01:13:10;5.97;;;2.20;;
42030;SDS011;27709;52.036;5.906;2022-10-16T01:15:46;5.22;;;2.20;;
42030;SDS011;27709;52.036;5.906;2022-10-16T01:18:18;5.18;;;2.38;;
42030;SDS011;27709;52.036;5.906;2022-10-16T01:21:10;3.78;;;2.20;;
42030;SDS011;27709;52.036;5.906;2022-10-16T01:29:51;3.92;;;2.20;;
42030;SDS011;27709;52.036;5.906;2022-10-16T01:32:43;3.80;;;2.20;;
42030;SDS011;27709;52.036;5.906;2022-10-16T01:43:05;5.28;;;2.33;;
42030;SDS011;27709;52.036;5.906;2022-10-16T01:45:37;4.13;;;2.50;;
42030;SDS011;27709;52.036;5.906;2022-10-16T01:48:04;5.07;;;2.30;;
42030;SDS011;27709;52.036;5.906;2022-10-16T01:50:35;4.82;;;2.72;;
42030;SDS011;27709;52.036;5.906;2022-10-16T01:53:05;5.18;;;2.60;;
42030;SDS011;27709;52.036;5.906;2022-10-16T01:55:34;5.45;;;2.55;;
42030;SDS011;27709;52.036;5.906;2022-10-16T01:58:04;4.00;;;2.50;;
42030;SDS011;27709;52.036;5.906;2022-10-16T02:00:32;5.20;;;2.28;;
42030;SDS011;27709;52.036;5.906;2022-10-16T02:03:01;6.13;;;2.92;;
42030;SDS011;27709;52.036;5.906;2022-10-16T02:05:30;5.05;;;2.30;;
42030;SDS011;27709;52.036;5.906;2022-10-16T02:08:03;5.93;;;2.90;;
42030;SDS011;27709;52.036;5.906;2022-10-16T02:10:29;5.03;;;2.50;;
42030;SDS011;27709;52.036;5.906;2022-10-16T02:13:09;4.85;;;1.65;;
42030;SDS011;27709;52.036;5.906;2022-10-16T02:15:50;4.90;;;2.30;;
42030;SDS011;27709;52.036;5.906;2022-10-16T02:18:16;3.47;;;2.20;;
42030;SDS011;27709;52.036;5.906;2022-10-16T02:20:48;4.45;;;2.45;;
42030;SDS011;27709;52.036;5.906;2022-10-16T02:23:18;5.18;;;2.30;;
42030;SDS011;27709;52.036;5.906;2022-10-16T02:28:27;5.32;;;2.70;;
42030;SDS011;27709;52.036;5.906;2022-10-16T02:30:58;3.55;;;2.35;;
42030;SDS011;27709;52.036;5.906;2022-10-16T02:33:28;4.18;;;2.22;;
42030;SDS011;27709;52.036;5.906;2022-10-16T02:35:56;3.38;;;1.90;;
42030;SDS011;27709;52.036;5.906;2022-10-16T02:38:22;3.75;;;1.90;;
42030;SDS011;27709;52.036;5.906;2022-10-16T02:40:49;3.33;;;1.90;;
42030;SDS011;27709;52.036;5.906;2022-10-16T02:43:15;5.90;;;2.35;;
42030;SDS011;27709;52.036;5.906;2022-10-16T02:45:41;6.07;;;2.03;;
42030;SDS011;27709;52.036;5.906;2022-10-16T02:48:07;4.60;;;2.00;;
42030;SDS011;27709;52.036;5.906;2022-10-16T02:50:33;5.97;;;2.22;;
42030;SDS011;27709;52.036;5.906;2022-10-16T02:52:59;5.15;;;2.10;;
42030;SDS011;27709;52.036;5.906;2022-10-16T02:55:24;3.90;;;1.60;;
42030;SDS011;27709;52.036;5.906;2022-10-16T02:57:50;4.10;;;2.30;;
42030;SDS011;27709;52.036;5.906;2022-10-16T03:00:15;7.43;;;2.45;;
42030;SDS011;27709;52.036;5.906;2022-10-16T03:02:42;3.65;;;1.70;;
42030;SDS011;27709;52.036;5.906;2022-10-16T03:05:08;4.00;;;1.70;;
42030;SDS011;27709;52.036;5.906;2022-10-16T03:07:34;4.28;;;2.10;;
42030;SDS011;27709;52.036;5.906;2022-10-16T03:10:00;4.20;;;1.80;;
42030;SDS011;27709;52.036;5.906;2022-10-16T03:12:26;2.88;;;1.65;;
42030;SDS011;27709;52.036;5.906;2022-10-16T03:14:53;3.38;;;1.73;;
42030;SDS011;27709;52.036;5.906;2022-10-16T03:17:18;5.07;;;1.80;;
42030;SDS011;27709;52.036;5.906;2022-10-16T03:19:44;3.63;;;1.70;;
42030;SDS011;27709;52.036;5.906;2022-10-16T03:22:10;4.68;;;2.20;;
42030;SDS011;27709;52.036;5.906;2022-10-16T03:24:35;6.25;;;2.03;;
42030;SDS011;27709;52.036;5.906;2022-10-16T03:27:01;5.43;;;1.70;;
42030;SDS011;27709;52.036;5.906;2022-10-16T03:29:27;4.47;;;2.20;;
42030;SDS011;27709;52.036;5.906;2022-10-16T03:31:54;4.30;;;1.90;;
42030;SDS011;27709;52.036;5.906;2022-10-16T03:34:20;4.90;;;1.88;;
42030;SDS011;27709;52.036;5.906;2022-10-16T03:36:45;6.95;;;1.75;;
42030;SDS011;27709;52.036;5.906;2022-10-16T03:39:11;5.93;;;2.13;;
42030;SDS011;27709;52.036;5.906;2022-10-16T03:41:36;2.88;;;1.48;;
42030;SDS011;27709;52.036;5.906;2022-10-16T03:44:02;4.72;;;2.08;;
42030;SDS011;27709;52.036;5.906;2022-10-16T03:46:27;4.10;;;1.80;;
42030;SDS011;27709;52.036;5.906;2022-10-16T03:48:53;4.35;;;1.70;;
42030;SDS011;27709;52.036;5.906;2022-10-16T03:51:18;3.20;;;1.50;;
42030;SDS011;27709;52.036;5.906;2022-10-16T03:53:44;3.85;;;1.90;;
42030;SDS011;27709;52.036;5.906;2022-10-16T03:56:09;4.28;;;1.80;;
42030;SDS011;27709;52.036;5.906;2022-10-16T03:58:35;3.33;;;2.10;;
42030;SDS011;27709;52.036;5.906;2022-10-16T04:01:00;2.40;;;1.40;;
42030;SDS011;27709;52.036;5.906;2022-10-16T04:03:26;5.80;;;1.48;;
42030;SDS011;27709;52.036;5.906;2022-10-16T04:05:51;2.55;;;1.42;;
42030;SDS011;27709;52.036;5.906;2022-10-16T04:08:17;3.53;;;1.30;;
42030;SDS011;27709;52.036;5.906;2022-10-16T04:10:43;3.45;;;1.50;;
42030;SDS011;27709;52.036;5.906;2022-10-16T04:13:09;3.78;;;1.90;;
42030;SDS011;27709;52.036;5.906;2022-10-16T04:15:34;2.78;;;1.52;;
42030;SDS011;27709;52.036;5.906;2022-10-16T04:18:00;4.13;;;1.52;;
42030;SDS011;27709;52.036;5.906;2022-10-16T04:20:25;4.97;;;1.80;;
42030;SDS011;27709;52.036;5.906;2022-10-16T04:22:51;2.38;;;1.42;;
42030;SDS011;27709;52.036;5.906;2022-10-16T04:25:16;3.65;;;1.80;;
42030;SDS011;27709;52.036;5.906;2022-10-16T04:27:42;3.53;;;1.75;;
42030;SDS011;27709;52.036;5.906;2022-10-16T04:30:07;3.13;;;1.42;;
42030;SDS011;27709;52.036;5.906;2022-10-16T04:32:33;3.75;;;1.90;;
42030;SDS011;27709;52.036;5.906;2022-10-16T04:34:59;4.25;;;1.55;;
42030;SDS011;27709;52.036;5.906;2022-10-16T04:37:25;5.13;;;2.03;;
42030;SDS011;27709;52.036;5.906;2022-10-16T04:39:51;4.75;;;2.20;;
42030;SDS011;27709;52.036;5.906;2022-10-16T04:42:17;3.88;;;1.60;;
42030;SDS011;27709;52.036;5.906;2022-10-16T04:44:43;3.95;;;1.55;;
42030;SDS011;27709;52.036;5.906;2022-10-16T04:47:08;2.20;;;1.40;;
42030;SDS011;27709;52.036;5.906;2022-10-16T04:49:34;3.40;;;1.63;;
42030;SDS011;27709;52.036;5.906;2022-10-16T04:51:59;5.00;;;1.90;;
42030;SDS011;27709;52.036;5.906;2022-10-16T04:54:25;3.15;;;1.83;;
42030;SDS011;27709;52.036;5.906;2022-10-16T04:56:50;3.75;;;1.63;;
42030;SDS011;27709;52.036;5.906;2022-10-16T04:59:17;3.15;;;1.45;;
42030;SDS011;27709;52.036;5.906;2022-10-16T05:01:44;2.38;;;1.50;;
42030;SDS011;27709;52.036;5.906;2022-10-16T05:04:10;2.30;;;1.40;;
42030;SDS011;27709;52.036;5.906;2022-10-16T05:06:36;5.18;;;1.65;;
42030;SDS011;27709;52.036;5.906;2022-10-16T05:09:03;2.50;;;1.45;;
42030;SDS011;27709;52.036;5.906;2022-10-16T05:11:30;4.28;;;1.70;;
42030;SDS011;27709;52.036;5.906;2022-10-16T05:13:55;5.55;;;1.75;;
42030;SDS011;27709;52.036;5.906;2022-10-16T05:16:21;3.67;;;1.70;;
42030;SDS011;27709;52.036;5.906;2022-10-16T05:18:47;3.33;;;1.70;;
42030;SDS011;27709;52.036;5.906;2022-10-16T05:21:12;4.55;;;1.70;;
42030;SDS011;27709;52.036;5.906;2022-10-16T05:23:38;3.20;;;1.65;;
42030;SDS011;27709;52.036;5.906;2022-10-16T05:26:03;3.45;;;1.60;;
42030;SDS011;27709;52.036;5.906;2022-10-16T05:28:30;3.30;;;1.83;;
42030;SDS011;27709;52.036;5.906;2022-10-16T05:30:56;5.97;;;2.10;;
42030;SDS011;27709;52.036;5.906;2022-10-16T05:33:23;4.45;;;1.90;;
42030;SDS011;27709;52.036;5.906;2022-10-16T05:35:50;3.75;;;1.63;;
42030;SDS011;27709;52.036;5.906;2022-10-16T05:38:16;2.70;;;1.40;;
42030;SDS011;27709;52.036;5.906;2022-10-16T05:40:42;3.90;;;1.83;;
42030;SDS011;27709;52.036;5.906;2022-10-16T05:43:08;4.20;;;1.70;;
42030;SDS011;27709;52.036;5.906;2022-10-16T05:45:34;3.50;;;1.58;;
42030;SDS011;27709;52.036;5.906;2022-10-16T05:47:59;4.63;;;1.90;;
42030;SDS011;27709;52.036;5.906;2022-10-16T05:50:25;5.35;;;1.95;;
42030;SDS011;27709;52.036;5.906;2022-10-16T05:52:51;4.43;;;2.13;;
42030;SDS011;27709;52.036;5.906;2022-10-16T05:55:17;6.45;;;1.92;;
42030;SDS011;27709;52.036;5.906;2022-10-16T05:57:42;2.75;;;1.60;;
42030;SDS011;27709;52.036;5.906;2022-10-16T06:00:08;4.28;;;1.42;;
42030;SDS011;27709;52.036;5.906;2022-10-16T06:02:34;3.95;;;1.90;;
42030;SDS011;27709;52.036;5.906;2022-10-16T06:04:59;5.43;;;1.77;;
42030;SDS011;27709;52.036;5.906;2022-10-16T06:07:25;4.25;;;1.92;;
42030;SDS011;27709;52.036;5.906;2022-10-16T06:09:51;2.50;;;1.60;;
42030;SDS011;27709;52.036;5.906;2022-10-16T06:12:17;2.95;;;1.63;;
42030;SDS011;27709;52.036;5.906;2022-10-16T06:14:43;3.65;;;1.67;;
42030;SDS011;27709;52.036;5.906;2022-10-16T06:17:09;4.20;;;1.75;;
42030;SDS011;27709;52.036;5.906;2022-10-16T06:19:35;3.50;;;1.90;;
42030;SDS011;27709;52.036;5.906;2022-10-16T06:22:00;3.10;;;1.80;;
42030;SDS011;27709;52.036;5.906;2022-10-16T06:24:27;4.25;;;1.90;;
42030;SDS011;27709;52.036;5.906;2022-10-16T06:26:53;3.72;;;1.88;;
42030;SDS011;27709;52.036;5.906;2022-10-16T06:29:18;3.28;;;1.65;;
42030;SDS011;27709;52.036;5.906;2022-10-16T06:31:44;4.40;;;1.95;;
42030;SDS011;27709;52.036;5.906;2022-10-16T06:34:10;4.32;;;2.15;;
42030;SDS011;27709;52.036;5.906;2022-10-16T06:36:36;2.80;;;1.80;;
42030;SDS011;27709;52.036;5.906;2022-10-16T06:39:03;2.70;;;1.77;;
42030;SDS011;27709;52.036;5.906;2022-10-16T06:41:29;5.03;;;1.80;;
42030;SDS011;27709;52.036;5.906;2022-10-16T06:43:55;4.30;;;2.10;;
42030;SDS011;27709;52.036;5.906;2022-10-16T06:46:21;4.05;;;1.80;;
42030;SDS011;27709;52.036;5.906;2022-10-16T06:48:48;7.28;;;1.80;;
42030;SDS011;27709;52.036;5.906;2022-10-16T06:51:15;3.80;;;2.08;;
42030;SDS011;27709;52.036;5.906;2022-10-16T06:53:42;4.60;;;1.77;;
42030;SDS011;27709;52.036;5.906;2022-10-16T06:56:13;3.10;;;1.80;;
42030;SDS011;27709;52.036;5.906;2022-10-16T06:58:46;4.28;;;2.00;;
42030;SDS011;27709;52.036;5.906;2022-10-16T07:01:13;3.70;;;2.13;;
42030;SDS011;27709;52.036;5.906;2022-10-16T07:03:41;4.72;;;2.22;;
42030;SDS011;27709;52.036;5.906;2022-10-16T07:06:08;5.28;;;2.15;;
42030;SDS011;27709;52.036;5.906;2022-10-16T07:08:40;2.92;;;1.60;;
42030;SDS011;27709;52.036;5.906;2022-10-16T07:11:07;3.22;;;1.70;;
42030;SDS011;27709;52.036;5.906;2022-10-16T07:13:35;4.97;;;1.80;;
42030;SDS011;27709;52.036;5.906;2022-10-16T07:16:06;4.60;;;1.75;;
42030;SDS011;27709;52.036;5.906;2022-10-16T07:21:08;5.80;;;2.05;;
42030;SDS011;27709;52.036;5.906;2022-10-16T07:23:36;3.17;;;1.80;;
42030;SDS011;27709;52.036;5.906;2022-10-16T07:26:02;3.80;;;2.28;;
42030;SDS011;27709;52.036;5.906;2022-10-16T07:28:29;3.55;;;1.90;;
42030;SDS011;27709;52.036;5.906;2022-10-16T07:30:59;4.35;;;2.10;;
42030;SDS011;27709;52.036;5.906;2022-10-16T07:33:26;2.75;;;1.50;;
42030;SDS011;27709;52.036;5.906;2022-10-16T07:35:52;3.15;;;1.70;;
42030;SDS011;27709;52.036;5.906;2022-10-16T07:38:19;3.88;;;2.10;;
42030;SDS011;27709;52.036;5.906;2022-10-16T07:40:45;4.50;;;1.90;;
42030;SDS011;27709;52.036;5.906;2022-10-16T07:43:11;3.35;;;1.52;;
42030;SDS011;27709;52.036;5.906;2022-10-16T07:45:37;3.78;;;1.50;;
42030;SDS011;27709;52.036;5.906;2022-10-16T07:48:03;4.38;;;1.60;;
42030;SDS011;27709;52.036;5.906;2022-10-16T07:50:29;4.32;;;1.48;;
42030;SDS011;27709;52.036;5.906;2022-10-16T07:52:54;5.78;;;1.90;;
42030;SDS011;27709;52.036;5.906;2022-10-16T07:55:20;6.15;;;1.55;;
42030;SDS011;27709;52.036;5.906;2022-10-16T07:57:45;4.22;;;1.60;;
42030;SDS011;27709;52.036;5.906;2022-10-16T08:00:11;3.85;;;1.45;;
42030;SDS011;27709;52.036;5.906;2022-10-16T08:02:39;3.33;;;1.30;;
42030;SDS011;27709;52.036;5.906;2022-10-16T08:05:05;2.90;;;1.30;;
42030;SDS011;27709;52.036;5.906;2022-10-16T08:07:31;3.17;;;1.42;;
42030;SDS011;27709;52.036;5.906;2022-10-16T08:09:57;3.42;;;1.30;;
42030;SDS011;27709;52.036;5.906;2022-10-16T08:12:23;4.93;;;1.60;;
42030;SDS011;27709;52.036;5.906;2022-10-16T08:14:49;2.53;;;1.30;;
42030;SDS011;27709;52.036;5.906;2022-10-16T08:17:15;3.28;;;1.70;;
42030;SDS011;27709;52.036;5.906;2022-10-16T08:19:43;4.55;;;1.58;;
42030;SDS011;27709;52.036;5.906;2022-10-16T08:22:09;3.45;;;1.50;;
42030;SDS011;27709;52.036;5.906;2022-10-16T08:24:35;4.07;;;1.35;;
42030;SDS011;27709;52.036;5.906;2022-10-16T08:27:01;3.17;;;1.50;;
42030;SDS011;27709;52.036;5.906;2022-10-16T08:29:27;2.67;;;1.10;;
42030;SDS011;27709;52.036;5.906;2022-10-16T08:31:53;3.08;;;1.60;;
42030;SDS011;27709;52.036;5.906;2022-10-16T08:34:19;3.05;;;1.23;;
42030;SDS011;27709;52.036;5.906;2022-10-16T08:36:44;4.13;;;1.88;;
42030;SDS011;27709;52.036;5.906;2022-10-16T08:39:10;4.43;;;1.42;;
42030;SDS011;27709;52.036;5.906;2022-10-16T08:44:45;3.08;;;1.52;;
42030;SDS011;27709;52.036;5.906;2022-10-16T08:46:56;3.65;;;1.80;;
42030;SDS011;27709;52.036;5.906;2022-10-16T08:49:25;3.53;;;1.48;;
42030;SDS011;27709;52.036;5.906;2022-10-16T08:51:52;3.55;;;1.02;;
42030;SDS011;27709;52.036;5.906;2022-10-16T08:54:37;2.08;;;1.17;;
42030;SDS011;27709;52.036;5.906;2022-10-16T08:57:14;4.27;;;1.40;;
42030;SDS011;27709;52.036;5.906;2022-10-16T08:59:47;5.07;;;1.35;;
42030;SDS011;27709;52.036;5.906;2022-10-16T09:02:23;5.47;;;1.38;;
42030;SDS011;27709;52.036;5.906;2022-10-16T09:04:55;5.40;;;1.40;;
42030;SDS011;27709;52.036;5.906;2022-10-16T09:10:22;3.55;;;1.30;;
42030;SDS011;27709;52.036;5.906;2022-10-16T09:16:35;4.32;;;1.20;;
42030;SDS011;27709;52.036;5.906;2022-10-16T09:19:13;2.78;;;1.00;;
42030;SDS011;27709;52.036;5.906;2022-10-16T09:24:16;7.20;;;1.20;;
42030;SDS011;27709;52.036;5.906;2022-10-16T09:26:44;6.97;;;1.20;;
42030;SDS011;27709;52.036;5.906;2022-10-16T09:29:14;5.55;;;1.58;;
42030;SDS011;27709;52.036;5.906;2022-10-16T09:31:40;6.22;;;1.30;;
42030;SDS011;27709;52.036;5.906;2022-10-16T09:34:08;4.78;;;1.35;;
42030;SDS011;27709;52.036;5.906;2022-10-16T09:36:48;4.93;;;1.20;;
42030;SDS011;27709;52.036;5.906;2022-10-16T09:39:14;4.45;;;1.20;;
42030;SDS011;27709;52.036;5.906;2022-10-16T09:41:41;3.50;;;1.20;;
42030;SDS011;27709;52.036;5.906;2022-10-16T09:46:45;5.00;;;1.20;;
42030;SDS011;27709;52.036;5.906;2022-10-16T09:49:21;7.43;;;1.20;;
42030;SDS011;27709;52.036;5.906;2022-10-16T09:51:49;3.53;;;0.93;;
42030;SDS011;27709;52.036;5.906;2022-10-16T09:54:20;3.88;;;0.90;;
42030;SDS011;27709;52.036;5.906;2022-10-16T09:56:46;5.85;;;0.90;;
42030;SDS011;27709;52.036;5.906;2022-10-16T09:59:17;4.35;;;1.05;;
42030;SDS011;27709;52.036;5.906;2022-10-16T10:01:52;4.60;;;1.00;;
42030;SDS011;27709;52.036;5.906;2022-10-16T10:04:22;4.75;;;1.15;;
42030;SDS011;27709;52.036;5.906;2022-10-16T10:06:52;4.35;;;0.98;;
42030;SDS011;27709;52.036;5.906;2022-10-16T10:09:24;5.43;;;1.10;;
42030;SDS011;27709;52.036;5.906;2022-10-16T10:11:57;5.63;;;1.13;;
42030;SDS011;27709;52.036;5.906;2022-10-16T10:14:34;7.72;;;1.00;;
42030;SDS011;27709;52.036;5.906;2022-10-16T10:19:37;4.15;;;1.17;;
42030;SDS011;27709;52.036;5.906;2022-10-16T10:22:22;6.72;;;1.23;;
42030;SDS011;27709;52.036;5.906;2022-10-16T10:25:00;6.53;;;1.10;;
42030;SDS011;27709;52.036;5.906;2022-10-16T10:27:46;4.82;;;1.05;;
42030;SDS011;27709;52.036;5.906;2022-10-16T10:33:28;6.47;;;1.08;;
42030;SDS011;27709;52.036;5.906;2022-10-16T10:38:57;5.57;;;1.10;;
42030;SDS011;27709;52.036;5.906;2022-10-16T10:47:17;8.45;;;1.08;;
42030;SDS011;27709;52.036;5.906;2022-10-16T10:49:54;5.80;;;0.98;;
42030;SDS011;27709;52.036;5.906;2022-10-16T10:55:31;6.55;;;1.00;;
42030;SDS011;27709;52.036;5.906;2022-10-16T10:58:16;7.25;;;1.27;;
42030;SDS011;27709;52.036;5.906;2022-10-16T11:01:07;8.40;;;1.10;;
42030;SDS011;27709;52.036;5.906;2022-10-16T11:08:52;6.75;;;1.20;;
42030;SDS011;27709;52.036;5.906;2022-10-16T11:11:25;8.02;;;0.90;;
42030;SDS011;27709;52.036;5.906;2022-10-16T11:19:42;10.68;;;1.40;;
42030;SDS011;27709;52.036;5.906;2022-10-16T11:27:54;6.25;;;0.90;;
42030;SDS011;27709;52.036;5.906;2022-10-16T11:30:28;5.43;;;1.30;;
42030;SDS011;27709;52.036;5.906;2022-10-16T11:35:41;5.75;;;0.90;;
42030;SDS011;27709;52.036;5.906;2022-10-16T11:38:29;6.80;;;1.02;;
42030;SDS011;27709;52.036;5.906;2022-10-16T11:40:56;8.05;;;1.00;;
42030;SDS011;27709;52.036;5.906;2022-10-16T11:43:29;8.18;;;1.02;;
42030;SDS011;27709;52.036;5.906;2022-10-16T11:46:04;7.07;;;1.00;;
42030;SDS011;27709;52.036;5.906;2022-10-16T11:51:33;6.10;;;0.80;;
42030;SDS011;27709;52.036;5.906;2022-10-16T11:54:07;7.03;;;0.97;;
42030;SDS011;27709;52.036;5.906;2022-10-16T11:56:46;6.30;;;0.90;;
42030;SDS011;27709;52.036;5.906;2022-10-16T12:04:46;5.05;;;1.17;;
42030;SDS011;27709;52.036;5.906;2022-10-16T12:07:27;8.35;;;0.90;;
42030;SDS011;27709;52.036;5.906;2022-10-16T12:10:17;6.57;;;0.90;;
42030;SDS011;27709;52.036;5.906;2022-10-16T12:12:45;6.50;;;1.00;;
42030;SDS011;27709;52.036;5.906;2022-10-16T12:15:19;5.95;;;0.80;;
42030;SDS011;27709;52.036;5.906;2022-10-16T12:17:47;6.32;;;1.00;;
42030;SDS011;27709;52.036;5.906;2022-10-16T12:22:53;9.13;;;1.17;;
42030;SDS011;27709;52.036;5.906;2022-10-16T12:25:39;6.15;;;0.90;;
42030;SDS011;27709;52.036;5.906;2022-10-16T12:30:51;5.53;;;0.95;;
42030;SDS011;27709;52.036;5.906;2022-10-16T12:33:35;6.95;;;0.90;;
42030;SDS011;27709;52.036;5.906;2022-10-16T12:36:06;9.63;;;1.20;;
42030;SDS011;27709;52.036;5.906;2022-10-16T12:38:51;5.30;;;1.08;;
42030;SDS011;27709;52.036;5.906;2022-10-16T12:41:53;6.47;;;1.20;;
42030;SDS011;27709;52.036;5.906;2022-10-16T12:44:24;5.28;;;0.93;;
42030;SDS011;27709;52.036;5.906;2022-10-16T12:46:52;5.05;;;0.85;;
42030;SDS011;27709;52.036;5.906;2022-10-16T12:49:23;4.38;;;0.80;;
42030;SDS011;27709;52.036;5.906;2022-10-16T12:51:56;4.18;;;0.60;;
42030;SDS011;27709;52.036;5.906;2022-10-16T13:02:56;5.75;;;1.00;;
42030;SDS011;27709;52.036;5.906;2022-10-16T13:13:51;5.63;;;0.90;;
42030;SDS011;27709;52.036;5.906;2022-10-16T13:22:19;5.63;;;0.95;;
42030;SDS011;27709;52.036;5.906;2022-10-16T13:27:50;6.25;;;0.93;;
42030;SDS011;27709;52.036;5.906;2022-10-16T13:30:27;5.68;;;0.80;;
42030;SDS011;27709;52.036;5.906;2022-10-16T13:33:04;3.50;;;0.70;;
42030;SDS011;27709;52.036;5.906;2022-10-16T13:35:34;6.55;;;0.80;;
42030;SDS011;27709;52.036;5.906;2022-10-16T13:40:53;3.95;;;0.60;;
42030;SDS011;27709;52.036;5.906;2022-10-16T13:43:37;8.82;;;1.02;;
42030;SDS011;27709;52.036;5.906;2022-10-16T13:46:06;4.70;;;0.80;;
42030;SDS011;27709;52.036;5.906;2022-10-16T13:48:39;6.05;;;0.80;;
42030;SDS011;27709;52.036;5.906;2022-10-16T13:51:11;7.07;;;0.80;;
42030;SDS011;27709;52.036;5.906;2022-10-16T13:53:39;8.52;;;1.05;;
42030;SDS011;27709;52.036;5.906;2022-10-16T13:56:06;7.50;;;0.93;;
42030;SDS011;27709;52.036;5.906;2022-10-16T13:58:36;7.10;;;1.20;;
42030;SDS011;27709;52.036;5.906;2022-10-16T14:01:05;4.65;;;0.80;;
42030;SDS011;27709;52.036;5.906;2022-10-16T14:03:38;3.08;;;0.70;;
42030;SDS011;27709;52.036;5.906;2022-10-16T14:06:05;5.13;;;0.70;;
42030;SDS011;27709;52.036;5.906;2022-10-16T14:08:40;5.25;;;0.70;;
42030;SDS011;27709;52.036;5.906;2022-10-16T14:11:09;4.95;;;0.90;;
42030;SDS011;27709;52.036;5.906;2022-10-16T14:13:38;7.22;;;0.88;;
42030;SDS011;27709;52.036;5.906;2022-10-16T14:16:09;4.55;;;0.68;;
42030;SDS011;27709;52.036;5.906;2022-10-16T14:18:36;5.88;;;0.82;;
42030;SDS011;27709;52.036;5.906;2022-10-16T14:21:05;5.63;;;0.80;;
42030;SDS011;27709;52.036;5.906;2022-10-16T14:23:38;3.45;;;0.70;;
42030;SDS011;27709;52.036;5.906;2022-10-16T14:28:38;4.68;;;0.85;;
42030;SDS011;27709;52.036;5.906;2022-10-16T14:31:41;4.68;;;0.90;;
42030;SDS011;27709;52.036;5.906;2022-10-16T14:34:01;4.82;;;0.80;;
42030;SDS011;27709;52.036;5.906;2022-10-16T14:36:27;4.53;;;0.65;;
42030;SDS011;27709;52.036;5.906;2022-10-16T14:39:04;5.05;;;0.82;;
42030;SDS011;27709;52.036;5.906;2022-10-16T14:41:47;4.00;;;0.73;;
42030;SDS011;27709;52.036;5.906;2022-10-16T14:44:14;5.00;;;0.80;;
42030;SDS011;27709;52.036;5.906;2022-10-16T14:46:42;5.28;;;1.00;;
42030;SDS011;27709;52.036;5.906;2022-10-16T14:51:34;4.78;;;0.50;;
42030;SDS011;27709;52.036;5.906;2022-10-16T14:54:01;4.00;;;0.60;;
42030;SDS011;27709;52.036;5.906;2022-10-16T14:56:29;3.58;;;0.65;;
42030;SDS011;27709;52.036;5.906;2022-10-16T14:58:57;4.68;;;0.70;;
42030;SDS011;27709;52.036;5.906;2022-10-16T15:01:23;4.75;;;0.70;;
42030;SDS011;27709;52.036;5.906;2022-10-16T15:03:49;4.35;;;0.70;;
42030;SDS011;27709;52.036;5.906;2022-10-16T15:06:17;4.78;;;0.77;;
42030;SDS011;27709;52.036;5.906;2022-10-16T15:08:42;2.92;;;0.57;;
42030;SDS011;27709;52.036;5.906;2022-10-16T15:11:18;3.25;;;0.60;;
42030;SDS011;27709;52.036;5.906;2022-10-16T15:13:44;4.18;;;0.82;;
42030;SDS011;27709;52.036;5.906;2022-10-16T15:16:11;5.05;;;0.82;;
42030;SDS011;27709;52.036;5.906;2022-10-16T15:18:39;6.03;;;0.73;;
42030;SDS011;27709;52.036;5.906;2022-10-16T15:21:04;5.18;;;0.70;;
42030;SDS011;27709;52.036;5.906;2022-10-16T15:23:30;5.65;;;0.63;;
42030;SDS011;27709;52.036;5.906;2022-10-16T15:25:56;5.82;;;0.88;;
42030;SDS011;27709;52.036;5.906;2022-10-16T15:28:23;6.65;;;0.80;;
42030;SDS011;27709;52.036;5.906;2022-10-16T15:30:53;5.53;;;0.90;;
42030;SDS011;27709;52.036;5.906;2022-10-16T15:33:21;5.13;;;0.80;;
42030;SDS011;27709;52.036;5.906;2022-10-16T15:35:57;4.70;;;0.70;;
42030;SDS011;27709;52.036;5.906;2022-10-16T15:38:23;7.15;;;0.90;;
42030;SDS011;27709;52.036;5.906;2022-10-16T15:40:50;6.70;;;0.95;;
42030;SDS011;27709;52.036;5.906;2022-10-16T15:43:16;4.78;;;0.70;;
42030;SDS011;27709;52.036;5.906;2022-10-16T15:45:41;3.17;;;0.60;;
42030;SDS011;27709;52.036;5.906;2022-10-16T15:48:10;5.82;;;0.68;;
42030;SDS011;27709;52.036;5.906;2022-10-16T15:50:36;6.28;;;0.98;;
42030;SDS011;27709;52.036;5.906;2022-10-16T15:53:03;4.75;;;0.75;;
42030;SDS011;27709;52.036;5.906;2022-10-16T15:55:29;3.47;;;0.73;;
42030;SDS011;27709;52.036;5.906;2022-10-16T15:57:54;5.53;;;1.00;;
42030;SDS011;27709;52.036;5.906;2022-10-16T16:00:20;5.30;;;0.90;;
42030;SDS011;27709;52.036;5.906;2022-10-16T16:02:50;6.50;;;0.95;;
42030;SDS011;27709;52.036;5.906;2022-10-16T16:05:17;7.35;;;0.90;;
42030;SDS011;27709;52.036;5.906;2022-10-16T16:07:43;4.35;;;0.90;;
42030;SDS011;27709;52.036;5.906;2022-10-16T16:10:09;3.47;;;0.70;;
42030;SDS011;27709;52.036;5.906;2022-10-16T16:12:36;7.78;;;1.00;;
42030;SDS011;27709;52.036;5.906;2022-10-16T16:15:03;6.55;;;1.00;;
42030;SDS011;27709;52.036;5.906;2022-10-16T16:17:30;5.55;;;0.98;;
42030;SDS011;27709;52.036;5.906;2022-10-16T16:19:56;4.45;;;0.80;;
42030;SDS011;27709;52.036;5.906;2022-10-16T16:22:22;4.93;;;0.93;;
42030;SDS011;27709;52.036;5.906;2022-10-16T16:24:48;6.32;;;0.85;;
42030;SDS011;27709;52.036;5.906;2022-10-16T16:27:13;7.55;;;1.10;;
42030;SDS011;27709;52.036;5.906;2022-10-16T16:29:39;4.75;;;0.90;;
42030;SDS011;27709;52.036;5.906;2022-10-16T16:32:04;5.55;;;0.73;;
42030;SDS011;27709;52.036;5.906;2022-10-16T16:34:30;4.07;;;0.93;;
42030;SDS011;27709;52.036;5.906;2022-10-16T16:36:55;7.10;;;0.88;;
42030;SDS011;27709;52.036;5.906;2022-10-16T16:39:22;6.57;;;1.20;;
42030;SDS011;27709;52.036;5.906;2022-10-16T16:41:48;4.55;;;1.05;;
42030;SDS011;27709;52.036;5.906;2022-10-16T16:44:14;7.82;;;1.52;;
42030;SDS011;27709;52.036;5.906;2022-10-16T16:46:41;7.78;;;1.60;;
42030;SDS011;27709;52.036;5.906;2022-10-16T16:49:09;7.80;;;1.25;;
42030;SDS011;27709;52.036;5.906;2022-10-16T16:51:40;5.88;;;1.00;;
42030;SDS011;27709;52.036;5.906;2022-10-16T16:54:06;5.72;;;1.13;;
42030;SDS011;27709;52.036;5.906;2022-10-16T16:56:33;7.47;;;1.30;;
42030;SDS011;27709;52.036;5.906;2022-10-16T16:58:59;6.43;;;1.40;;